Mount Moornapa, Australia
Current Conditions -  °F | °C
As of 10:00 AM on Friday 19 Dec 2014 (Local Time) from YMAY Reporting Station
Clear Clear  
Wind Chill: 66°   Ceiling: Unl
Heat Index: 66°   Visibility: 6mi
Dew Point: 39°   Wind: 8mph
Humidity: 37%   Direction: 230°SW
Pressure: 29.94"   Gusts: NA
Location:  37.75°S, 147.13°E
Report Text: YMAY 182300Z AUTO 23007KT 180V330 9999 // NCD 19/04 Q1014
Loading
Personal Weather Stations






























Interactive Weather Map New forecast layout! Learn more

10-Day Weather Forecast

Advertisements
Track Severe Weather on mobile